Regal Star — ESCM — position and weather

sailwx.info

Track history (hours):
 
Tides and Currents Weather Stations Pressure Air Temp Water Temp Dewpoint Dewpoint Depression Visibility Wind Speed Wind Dir Waves Ship Positions

Regal Star

Last reported at 2017-Nov-17 20:51 UTC. Time now 2017-Nov-17 21:24 UTC.
Position N 59°45' E 019°38'.

Length 157 m; draft 6.3 m.

Type: Ship (hazmat cat B). MMSI: 276554000.

Date/timePositionNaut miles runAvg speedWind from/ knotsBaromVisibWave heightAir tempDewpointWater temp
2017-Nov-17 20:51N 59°45' E 019°38'616.2
2017-Nov-17 20:30N 59°46' E 019°27'815.7
2017-Nov-17 20:00N 59°44' E 019°12'4 7.9
2017-Nov-17 19:30N 59°43' E 019°04'0 0.0
2017-Nov-17 19:00N 59°43' E 019°04'0 0.0
2017-Nov-17 18:30N 59°43' E 019°04'0 0.0
2017-Nov-17 18:00N 59°43' E 019°04'0 0.0
2017-Nov-17 17:30N 59°43' E 019°04'0 0.0
2017-Nov-17 17:00N 59°43' E 019°04'0 0.0
2017-Nov-17 16:30N 59°43' E 019°04'0 0.0
2017-Nov-17 16:00N 59°43' E 019°04'0 0.0
2017-Nov-17 12:18N 59°43' E 019°04'0 0.0
2017-Nov-17 12:00N 59°43' E 019°04'0 0.0
2017-Nov-17 11:30N 59°43' E 019°04'0 0.0
2017-Nov-17 11:00N 59°43' E 019°04'0 0.0
2017-Nov-17 10:27N 59°43' E 019°04'0 0.0
2017-Nov-17 10:00N 59°43' E 019°04'0 0.0
2017-Nov-17 09:30N 59°43' E 019°04'0 0.0
2017-Nov-17 09:00N 59°43' E 019°04'0 0.0
2017-Nov-17 08:30N 59°43' E 019°04'0 0.0
2017-Nov-17 08:00N 59°43' E 019°04'0 0.0
2017-Nov-17 07:30N 59°43' E 019°04'0 0.0
2017-Nov-17 07:00N 59°43' E 019°04'0 0.0
2017-Nov-17 06:30N 59°43' E 019°04'0 0.0
2017-Nov-17 06:00N 59°43' E 019°04'0 0.4
2017-Nov-17 05:31N 59°43' E 019°04'612.6
2017-Nov-17 05:00N 59°45' E 019°16'714.1
2017-Nov-17 04:30N 59°46' E 019°30'714.0
2017-Nov-17 04:00N 59°44' E 019°44'4313.6
2017-Nov-17 00:52N 59°30' E 021°04'514.5
2017-Nov-17 00:31N 59°29' E 021°14'714.6
2017-Nov-17 00:00N 59°27' E 021°28'714.8
2017-Nov-16 23:31N 59°26' E 021°42'56 3.0
2017-Nov-16 05:04N 59°23' E 023°32'415.4
2017-Nov-16 04:48N 59°23' E 023°23'4815.2
2017-Nov-16 01:38N 59°29' E 021°49'215.7
2017-Nov-16 01:30N 59°30' E 021°45'815.9
2017-Nov-16 01:00N 59°32' E 021°30'816.0
2017-Nov-16 00:30N 59°34' E 021°15'815.9
2017-Nov-16 00:00N 59°37' E 021°00'4215.5
2017-Nov-15 21:18N 59°45' E 019°39'516.2
2017-Nov-15 21:00N 59°46' E 019°30'815.7
2017-Nov-15 20:30N 59°44' E 019°14'510.0
2017-Nov-15 19:59N 59°43' E 019°04'0 0.0
2017-Nov-15 19:29N 59°43' E 019°04'0 0.0
2017-Nov-15 18:59N 59°43' E 019°04'0 0.0
2017-Nov-15 18:29N 59°43' E 019°04'0 0.0
2017-Nov-15 17:59N 59°43' E 019°04'0 0.0
2017-Nov-15 17:29N 59°43' E 019°04'0 0.0
2017-Nov-15 16:59N 59°43' E 019°04'0 0.0
2017-Nov-15 16:29N 59°43' E 019°04'0 0.0
2017-Nov-15 15:59N 59°43' E 019°04'0 0.0
2017-Nov-15 15:29N 59°43' E 019°04'0 0.0
2017-Nov-15 09:38N 59°43' E 019°04'0 0.0
2017-Nov-15 09:29N 59°43' E 019°04'0 0.0
2017-Nov-15 08:59N 59°43' E 019°04'0 0.0
2017-Nov-15 08:26N 59°43' E 019°04'0 0.0
2017-Nov-15 07:59N 59°43' E 019°04'0 0.0
2017-Nov-15 06:05N 59°43' E 019°04'0 0.0
2017-Nov-15 05:47N 59°43' E 019°04'0 0.3
2017-Nov-15 05:30N 59°43' E 019°04'611.8
2017-Nov-15 05:00N 59°45' E 019°15'714.9
2017-Nov-15 04:30N 59°46' E 019°30'815.1
2017-Nov-15 04:00N 59°44' E 019°44'814.7
2017-Nov-15 03:29N 59°40' E 019°58'3414.8
2017-Nov-15 01:11N 59°31' E 021°02'315.2
2017-Nov-15 01:00N 59°30' E 021°08'715.3
2017-Nov-15 00:30N 59°28' E 021°22'815.2
2017-Nov-15 00:00N 59°26' E 021°37'815.1
2017-Nov-14 23:30N 59°25' E 021°52'5 0.2
2017-Nov-14 01:36N 59°29' E 021°49'215.3
2017-Nov-14 01:30N 59°30' E 021°46'815.4
2017-Nov-14 01:00N 59°32' E 021°32'815.4
2017-Nov-14 00:30N 59°34' E 021°17'815.4
2017-Nov-14 00:00N 59°36' E 021°03'1 0.1
2017-Nov-13 01:11N 59°38' E 021°03'315.0
2017-Nov-13 00:59N 59°38' E 021°09'715.0
2017-Nov-13 00:31N 59°37' E 021°23'715.0
2017-Nov-13 00:01N 59°35' E 021°37'714.8
2017-Nov-12 23:31N 59°34' E 021°52'714.8
2017-Nov-12 23:00N 59°33' E 022°06'4014.8
2017-Nov-12 20:18N 59°27' E 023°24'9 1.4
2017-Nov-12 14:11N 59°23' E 023°09'4016.0
2017-Nov-12 11:40N 59°29' E 021°51'216.2
2017-Nov-12 11:31N 59°30' E 021°46'816.0
2017-Nov-12 11:01N 59°32' E 021°31'816.0
2017-Nov-12 10:31N 59°34' E 021°16'816.0
2017-Nov-12 10:00N 59°37' E 021°01'4115.5
2017-Nov-12 07:23N 59°45' E 019°42'615.9
2017-Nov-12 07:01N 59°46' E 019°30'815.3
2017-Nov-12 06:31N 59°45' E 019°15'610.7
2017-Nov-12 05:59N 59°43' E 019°04'0 0.0
2017-Nov-12 05:26N 59°43' E 019°04'1 1.8
2017-Nov-12 05:01N 59°43' E 019°06'714.1
2017-Nov-12 04:31N 59°45' E 019°19'714.3
2017-Nov-12 04:01N 59°47' E 019°33'713.7
2017-Nov-12 03:30N 59°47' E 019°46'4114.5
2017-Nov-12 00:42N 59°38' E 021°05'315.6
2017-Nov-12 00:30N 59°38' E 021°11'815.5
2017-Nov-12 00:00N 59°36' E 021°26'815.6
2017-Nov-11 23:30N 59°35' E 021°41'815.4
2017-Nov-11 23:00N 59°34' E 021°56'815.3
2017-Nov-11 22:30N 59°33' E 022°12'3715.9
2017-Nov-11 20:09N 59°27' E 023°24'17 1.2
2017-Nov-11 05:51N 59°23' E 023°57'6314.6
2017-Nov-11 01:32N 59°29' E 021°53'014.6
2017-Nov-11 01:30N 59°29' E 021°52'714.6
2017-Nov-11 01:00N 59°31' E 021°39'714.6
2017-Nov-11 00:30N 59°33' E 021°25'714.7
2017-Nov-11 00:00N 59°35' E 021°11'714.6
2017-Nov-10 23:30N 59°37' E 020°57'4114.2
2017-Nov-10 20:38N 59°45' E 019°38'215.2
2017-Nov-10 20:30N 59°45' E 019°34'814.9
2017-Nov-10 20:00N 59°45' E 019°19'714.5
2017-Nov-10 19:30N 59°43' E 019°06'1 1.5
2017-Nov-10 18:58N 59°43' E 019°04'0 0.0
2017-Nov-10 18:28N 59°43' E 019°04'0 0.0
2017-Nov-10 17:58N 59°43' E 019°04'0 0.0
2017-Nov-10 17:28N 59°43' E 019°04'0 0.0
2017-Nov-10 16:58N 59°43' E 019°04'0 0.0
2017-Nov-10 16:28N 59°43' E 019°04'0 0.0
2017-Nov-10 15:58N 59°43' E 019°04'0 0.0
2017-Nov-10 15:28N 59°43' E 019°04'0 0.0
2017-Nov-10 14:58N 59°43' E 019°04'0 0.0
2017-Nov-10 14:19N 59°43' E 019°04'0 0.0
2017-Nov-10 13:52N 59°43' E 019°04'0 0.0
2017-Nov-10 12:52N 59°43' E 019°04'0 0.0
2017-Nov-10 12:28N 59°43' E 019°04'0 0.0
2017-Nov-10 11:58N 59°43' E 019°04'0 0.0
2017-Nov-10 11:28N 59°43' E 019°04'0 0.0
2017-Nov-10 10:58N 59°43' E 019°04'0 0.0
2017-Nov-10 10:25N 59°43' E 019°04'0 0.0
2017-Nov-10 09:58N 59°43' E 019°04'0 0.0
2017-Nov-10 09:28N 59°43' E 019°04'0 0.0
2017-Nov-10 08:58N 59°43' E 019°04'0 0.0
2017-Nov-10 08:28N 59°43' E 019°04'0 0.0
2017-Nov-10 07:58N 59°43' E 019°04'0 0.0
2017-Nov-10 07:28N 59°43' E 019°04'0 0.0
2017-Nov-10 06:58N 59°43' E 019°04'0 0.0
2017-Nov-10 06:30N 59°43' E 019°04'4 8.5
2017-Nov-10 06:00N 59°44' E 019°12'815.3
2017-Nov-10 05:30N 59°46' E 019°27'5113.8
2017-Nov-10 01:48N 59°30' E 021°03'413.2
2017-Nov-10 01:30N 59°30' E 021°11'612.7
2017-Nov-10 01:00N 59°28' E 021°23'612.5
2017-Nov-10 00:30N 59°27' E 021°35'612.3
2017-Nov-10 00:00N 59°25' E 021°47'5 0.2
2017-Nov-09 01:58N 59°29' E 021°53'715.7
2017-Nov-09 01:30N 59°31' E 021°39'815.7
2017-Nov-09 01:01N 59°33' E 021°25'815.6
2017-Nov-09 00:31N 59°35' E 021°10'4715.5
2017-Nov-08 21:30N 59°45' E 019°39'916.0
2017-Nov-08 20:58N 59°46' E 019°23'715.7
2017-Nov-08 20:30N 59°44' E 019°09'3 4.6
2017-Nov-08 19:57N 59°43' E 019°04'0 0.0
2017-Nov-08 19:30N 59°43' E 019°04'0 0.0
2017-Nov-08 19:00N 59°43' E 019°04'0 0.0
2017-Nov-08 18:30N 59°43' E 019°04'0 0.0
2017-Nov-08 18:00N 59°43' E 019°04'0 0.0
2017-Nov-08 17:30N 59°43' E 019°04'0 0.0
2017-Nov-08 17:00N 59°43' E 019°04'0 0.0
2017-Nov-08 16:30N 59°43' E 019°04'0 0.0
2017-Nov-08 16:00N 59°43' E 019°04'0 0.0
2017-Nov-08 15:30N 59°43' E 019°04'0 0.0
2017-Nov-08 15:00N 59°43' E 019°04'0 0.0
2017-Nov-08 14:15N 59°43' E 019°04'0 0.0
2017-Nov-08 13:57N 59°43' E 019°04'0 0.0
2017-Nov-08 13:30N 59°43' E 019°04'0 0.0
2017-Nov-08 12:57N 59°43' E 019°04'0 0.0
2017-Nov-08 12:30N 59°43' E 019°04'0 0.0
2017-Nov-08 12:00N 59°43' E 019°04'0 0.0
2017-Nov-08 11:30N 59°43' E 019°04'0 0.0
2017-Nov-08 11:00N 59°43' E 019°04'0 0.0
2017-Nov-08 10:30N 59°43' E 019°04'0 0.0
2017-Nov-08 10:00N 59°43' E 019°04'0 0.0
2017-Nov-08 09:30N 59°43' E 019°04'0 0.0
2017-Nov-08 09:00N 59°43' E 019°04'0 0.0
2017-Nov-08 08:30N 59°43' E 019°04'0 0.0
2017-Nov-08 08:00N 59°43' E 019°04'0 0.0
2017-Nov-08 07:30N 59°43' E 019°04'0 0.0
2017-Nov-08 07:00N 59°43' E 019°04'0 0.0
2017-Nov-08 06:30N 59°43' E 019°04'0 0.0
2017-Nov-08 06:00N 59°43' E 019°04'0 0.0
2017-Nov-08 05:30N 59°43' E 019°04'3 5.6
2017-Nov-08 05:00N 59°44' E 019°09'714.5
2017-Nov-08 04:30N 59°46' E 019°23'714.3
2017-Nov-08 04:00N 59°45' E 019°37'815.2
2017-Nov-08 03:30N 59°42' E 019°51'3815.1
2017-Nov-08 01:00N 59°31' E 021°02'815.5
2017-Nov-08 00:30N 59°29' E 021°17'815.6
2017-Nov-08 00:00N 59°27' E 021°32'815.6
2017-Nov-07 23:30N 59°26' E 021°47'  
Track history (hours):
 
Tides and Currents Weather Stations Pressure Air Temp Water Temp Dewpoint Dewpoint Depression Visibility Wind Speed Wind Dir Waves Ship Positions

Regal Star

Last reported at 2017-Nov-17 20:51 UTC. Time now 2017-Nov-17 21:24 UTC.
Position N 59°45' E 019°38'.

Length 157 m; draft 6.3 m.

Type: Ship (hazmat cat B). MMSI: 276554000.

Date/timePositionNaut miles runAvg speedWind from/ knotsBaromVisibWave heightAir tempDewpointWater temp
2017-Nov-17 20:51N 59°45' E 019°38'616.2
2017-Nov-17 20:30N 59°46' E 019°27'815.7
2017-Nov-17 20:00N 59°44' E 019°12'4 7.9
2017-Nov-17 19:30N 59°43' E 019°04'0 0.0
2017-Nov-17 19:00N 59°43' E 019°04'0 0.0
2017-Nov-17 18:30N 59°43' E 019°04'0 0.0
2017-Nov-17 18:00N 59°43' E 019°04'0 0.0
2017-Nov-17 17:30N 59°43' E 019°04'0 0.0
2017-Nov-17 17:00N 59°43' E 019°04'0 0.0
2017-Nov-17 16:30N 59°43' E 019°04'0 0.0
2017-Nov-17 16:00N 59°43' E 019°04'0 0.0
2017-Nov-17 12:18N 59°43' E 019°04'0 0.0
2017-Nov-17 12:00N 59°43' E 019°04'0 0.0
2017-Nov-17 11:30N 59°43' E 019°04'0 0.0
2017-Nov-17 11:00N 59°43' E 019°04'0 0.0
2017-Nov-17 10:27N 59°43' E 019°04'0 0.0
2017-Nov-17 10:00N 59°43' E 019°04'0 0.0
2017-Nov-17 09:30N 59°43' E 019°04'0 0.0
2017-Nov-17 09:00N 59°43' E 019°04'0 0.0
2017-Nov-17 08:30N 59°43' E 019°04'0 0.0
2017-Nov-17 08:00N 59°43' E 019°04'0 0.0
2017-Nov-17 07:30N 59°43' E 019°04'0 0.0
2017-Nov-17 07:00N 59°43' E 019°04'0 0.0
2017-Nov-17 06:30N 59°43' E 019°04'0 0.0
2017-Nov-17 06:00N 59°43' E 019°04'0 0.4
2017-Nov-17 05:31N 59°43' E 019°04'612.6
2017-Nov-17 05:00N 59°45' E 019°16'714.1
2017-Nov-17 04:30N 59°46' E 019°30'714.0
2017-Nov-17 04:00N 59°44' E 019°44'4313.6
2017-Nov-17 00:52N 59°30' E 021°04'514.5
2017-Nov-17 00:31N 59°29' E 021°14'714.6
2017-Nov-17 00:00N 59°27' E 021°28'714.8
2017-Nov-16 23:31N 59°26' E 021°42'56 3.0
2017-Nov-16 05:04N 59°23' E 023°32'415.4
2017-Nov-16 04:48N 59°23' E 023°23'4815.2
2017-Nov-16 01:38N 59°29' E 021°49'215.7
2017-Nov-16 01:30N 59°30' E 021°45'815.9
2017-Nov-16 01:00N 59°32' E 021°30'816.0
2017-Nov-16 00:30N 59°34' E 021°15'815.9
2017-Nov-16 00:00N 59°37' E 021°00'4215.5
2017-Nov-15 21:18N 59°45' E 019°39'516.2
2017-Nov-15 21:00N 59°46' E 019°30'815.7
2017-Nov-15 20:30N 59°44' E 019°14'510.0
2017-Nov-15 19:59N 59°43' E 019°04'0 0.0
2017-Nov-15 19:29N 59°43' E 019°04'0 0.0
2017-Nov-15 18:59N 59°43' E 019°04'0 0.0
2017-Nov-15 18:29N 59°43' E 019°04'0 0.0
2017-Nov-15 17:59N 59°43' E 019°04'0 0.0
2017-Nov-15 17:29N 59°43' E 019°04'0 0.0
2017-Nov-15 16:59N 59°43' E 019°04'0 0.0
2017-Nov-15 16:29N 59°43' E 019°04'0 0.0
2017-Nov-15 15:59N 59°43' E 019°04'0 0.0
2017-Nov-15 15:29N 59°43' E 019°04'0 0.0
2017-Nov-15 09:38N 59°43' E 019°04'0 0.0
2017-Nov-15 09:29N 59°43' E 019°04'0 0.0
2017-Nov-15 08:59N 59°43' E 019°04'0 0.0
2017-Nov-15 08:26N 59°43' E 019°04'0 0.0
2017-Nov-15 07:59N 59°43' E 019°04'0 0.0
2017-Nov-15 06:05N 59°43' E 019°04'0 0.0
2017-Nov-15 05:47N 59°43' E 019°04'0 0.3
2017-Nov-15 05:30N 59°43' E 019°04'611.8
2017-Nov-15 05:00N 59°45' E 019°15'714.9
2017-Nov-15 04:30N 59°46' E 019°30'815.1
2017-Nov-15 04:00N 59°44' E 019°44'814.7
2017-Nov-15 03:29N 59°40' E 019°58'3414.8
2017-Nov-15 01:11N 59°31' E 021°02'315.2
2017-Nov-15 01:00N 59°30' E 021°08'715.3
2017-Nov-15 00:30N 59°28' E 021°22'815.2
2017-Nov-15 00:00N 59°26' E 021°37'815.1
2017-Nov-14 23:30N 59°25' E 021°52'5 0.2
2017-Nov-14 01:36N 59°29' E 021°49'215.3
2017-Nov-14 01:30N 59°30' E 021°46'815.4
2017-Nov-14 01:00N 59°32' E 021°32'815.4
2017-Nov-14 00:30N 59°34' E 021°17'815.4
2017-Nov-14 00:00N 59°36' E 021°03'1 0.1
2017-Nov-13 01:11N 59°38' E 021°03'315.0
2017-Nov-13 00:59N 59°38' E 021°09'715.0
2017-Nov-13 00:31N 59°37' E 021°23'715.0
2017-Nov-13 00:01N 59°35' E 021°37'714.8
2017-Nov-12 23:31N 59°34' E 021°52'714.8
2017-Nov-12 23:00N 59°33' E 022°06'4014.8
2017-Nov-12 20:18N 59°27' E 023°24'9 1.4
2017-Nov-12 14:11N 59°23' E 023°09'4016.0
2017-Nov-12 11:40N 59°29' E 021°51'216.2
2017-Nov-12 11:31N 59°30' E 021°46'816.0
2017-Nov-12 11:01N 59°32' E 021°31'816.0
2017-Nov-12 10:31N 59°34' E 021°16'816.0
2017-Nov-12 10:00N 59°37' E 021°01'4115.5
2017-Nov-12 07:23N 59°45' E 019°42'615.9
2017-Nov-12 07:01N 59°46' E 019°30'815.3
2017-Nov-12 06:31N 59°45' E 019°15'610.7
2017-Nov-12 05:59N 59°43' E 019°04'0 0.0
2017-Nov-12 05:26N 59°43' E 019°04'1 1.8
2017-Nov-12 05:01N 59°43' E 019°06'714.1
2017-Nov-12 04:31N 59°45' E 019°19'714.3
2017-Nov-12 04:01N 59°47' E 019°33'713.7
2017-Nov-12 03:30N 59°47' E 019°46'4114.5
2017-Nov-12 00:42N 59°38' E 021°05'315.6
2017-Nov-12 00:30N 59°38' E 021°11'815.5
2017-Nov-12 00:00N 59°36' E 021°26'815.6
2017-Nov-11 23:30N 59°35' E 021°41'815.4
2017-Nov-11 23:00N 59°34' E 021°56'815.3
2017-Nov-11 22:30N 59°33' E 022°12'3715.9
2017-Nov-11 20:09N 59°27' E 023°24'17 1.2
2017-Nov-11 05:51N 59°23' E 023°57'6314.6
2017-Nov-11 01:32N 59°29' E 021°53'014.6
2017-Nov-11 01:30N 59°29' E 021°52'714.6
2017-Nov-11 01:00N 59°31' E 021°39'714.6
2017-Nov-11 00:30N 59°33' E 021°25'714.7
2017-Nov-11 00:00N 59°35' E 021°11'714.6
2017-Nov-10 23:30N 59°37' E 020°57'4114.2
2017-Nov-10 20:38N 59°45' E 019°38'215.2
2017-Nov-10 20:30N 59°45' E 019°34'814.9
2017-Nov-10 20:00N 59°45' E 019°19'714.5
2017-Nov-10 19:30N 59°43' E 019°06'1 1.5
2017-Nov-10 18:58N 59°43' E 019°04'0 0.0
2017-Nov-10 18:28N 59°43' E 019°04'0 0.0
2017-Nov-10 17:58N 59°43' E 019°04'0 0.0
2017-Nov-10 17:28N 59°43' E 019°04'0 0.0
2017-Nov-10 16:58N 59°43' E 019°04'0 0.0
2017-Nov-10 16:28N 59°43' E 019°04'0 0.0
2017-Nov-10 15:58N 59°43' E 019°04'0 0.0
2017-Nov-10 15:28N 59°43' E 019°04'0 0.0
2017-Nov-10 14:58N 59°43' E 019°04'0 0.0
2017-Nov-10 14:19N 59°43' E 019°04'0 0.0
2017-Nov-10 13:52N 59°43' E 019°04'0 0.0
2017-Nov-10 12:52N 59°43' E 019°04'0 0.0
2017-Nov-10 12:28N 59°43' E 019°04'0 0.0
2017-Nov-10 11:58N 59°43' E 019°04'0 0.0
2017-Nov-10 11:28N 59°43' E 019°04'0 0.0
2017-Nov-10 10:58N 59°43' E 019°04'0 0.0
2017-Nov-10 10:25N 59°43' E 019°04'0 0.0
2017-Nov-10 09:58N 59°43' E 019°04'0 0.0
2017-Nov-10 09:28N 59°43' E 019°04'0 0.0
2017-Nov-10 08:58N 59°43' E 019°04'0 0.0
2017-Nov-10 08:28N 59°43' E 019°04'0 0.0
2017-Nov-10 07:58N 59°43' E 019°04'0 0.0
2017-Nov-10 07:28N 59°43' E 019°04'0 0.0
2017-Nov-10 06:58N 59°43' E 019°04'0 0.0
2017-Nov-10 06:30N 59°43' E 019°04'4 8.5
2017-Nov-10 06:00N 59°44' E 019°12'815.3
2017-Nov-10 05:30N 59°46' E 019°27'5113.8
2017-Nov-10 01:48N 59°30' E 021°03'413.2
2017-Nov-10 01:30N 59°30' E 021°11'612.7
2017-Nov-10 01:00N 59°28' E 021°23'612.5
2017-Nov-10 00:30N 59°27' E 021°35'612.3
2017-Nov-10 00:00N 59°25' E 021°47'5 0.2
2017-Nov-09 01:58N 59°29' E 021°53'715.7
2017-Nov-09 01:30N 59°31' E 021°39'815.7
2017-Nov-09 01:01N 59°33' E 021°25'815.6
2017-Nov-09 00:31N 59°35' E 021°10'4715.5
2017-Nov-08 21:30N 59°45' E 019°39'916.0
2017-Nov-08 20:58N 59°46' E 019°23'715.7
2017-Nov-08 20:30N 59°44' E 019°09'3 4.6
2017-Nov-08 19:57N 59°43' E 019°04'0 0.0
2017-Nov-08 19:30N 59°43' E 019°04'0 0.0
2017-Nov-08 19:00N 59°43' E 019°04'0 0.0
2017-Nov-08 18:30N 59°43' E 019°04'0 0.0
2017-Nov-08 18:00N 59°43' E 019°04'0 0.0
2017-Nov-08 17:30N 59°43' E 019°04'0 0.0
2017-Nov-08 17:00N 59°43' E 019°04'0 0.0
2017-Nov-08 16:30N 59°43' E 019°04'0 0.0
2017-Nov-08 16:00N 59°43' E 019°04'0 0.0
2017-Nov-08 15:30N 59°43' E 019°04'0 0.0
2017-Nov-08 15:00N 59°43' E 019°04'0 0.0
2017-Nov-08 14:15N 59°43' E 019°04'0 0.0
2017-Nov-08 13:57N 59°43' E 019°04'0 0.0
2017-Nov-08 13:30N 59°43' E 019°04'0 0.0
2017-Nov-08 12:57N 59°43' E 019°04'0 0.0
2017-Nov-08 12:30N 59°43' E 019°04'0 0.0
2017-Nov-08 12:00N 59°43' E 019°04'0 0.0
2017-Nov-08 11:30N 59°43' E 019°04'0 0.0
2017-Nov-08 11:00N 59°43' E 019°04'0 0.0
2017-Nov-08 10:30N 59°43' E 019°04'0 0.0
2017-Nov-08 10:00N 59°43' E 019°04'0 0.0
2017-Nov-08 09:30N 59°43' E 019°04'0 0.0
2017-Nov-08 09:00N 59°43' E 019°04'0 0.0
2017-Nov-08 08:30N 59°43' E 019°04'0 0.0
2017-Nov-08 08:00N 59°43' E 019°04'0 0.0
2017-Nov-08 07:30N 59°43' E 019°04'0 0.0
2017-Nov-08 07:00N 59°43' E 019°04'0 0.0
2017-Nov-08 06:30N 59°43' E 019°04'0 0.0
2017-Nov-08 06:00N 59°43' E 019°04'0 0.0
2017-Nov-08 05:30N 59°43' E 019°04'3 5.6
2017-Nov-08 05:00N 59°44' E 019°09'714.5
2017-Nov-08 04:30N 59°46' E 019°23'714.3
2017-Nov-08 04:00N 59°45' E 019°37'815.2
2017-Nov-08 03:30N 59°42' E 019°51'3815.1
2017-Nov-08 01:00N 59°31' E 021°02'815.5
2017-Nov-08 00:30N 59°29' E 021°17'815.6
2017-Nov-08 00:00N 59°27' E 021°32'815.6
2017-Nov-07 23:30N 59°26' E 021°47'  

Dump ship's entire track history